Time;durP1;ratioP1;P1;durP2;ratioP2;P2;SDS_P1;SDS_P2;PMS_P1;PMS_P2;Temp;Humidity;BMP_temperature;BMP_pressure;BME280_temperature;BME280_humidity;BME280_pressure;Samples;Min_cycle;Max_cycle;Signal;HPM_P1;HPM_P2
2022/06/18 00:00:58;;;;;;;4.05;3.55;;;;;;;15.3;58.1543;95994.08;;;;
2022/06/18 00:01:59;;;;;;;4.05;3.55;;;;;;;15.3;58.1543;95994.08;;;;
2022/06/18 00:02:59;;;;;;;4.05;3.55;;;;;;;15.3;58.1543;95994.08;;;;
2022/06/18 00:04:00;;;;;;;4.05;3.55;;;;;;;15.3;58.1543;95994.08;;;;
2022/06/18 00:05:04;;;;;;;4.05;3.55;;;;;;;15.3;58.1543;95994.08;;;;
2022/06/18 00:06:06;;;;;;;4.05;3.55;;;;;;;15.3;58.1543;95994.08;;;;
2022/06/18 00:07:09;;;;;;;4.05;3.55;;;;;;;15.3;58.1543;95994.08;;;;
2022/06/18 00:08:14;;;;;;;4.05;3.55;;;;;;;15.3;58.1543;95994.08;;;;
2022/06/18 00:09:21;;;;;;;4.05;3.55;;;;;;;15.3;58.1543;95994.08;;;;
2022/06/18 00:10:27;;;;;;;4.05;3.55;;;;;;;15.3;58.1543;95994.08;;;;
2022/06/18 00:16:44;;;;;;;3.65;3.35;;;;;;;15.4;58.4082;95974.42;;;;
2022/06/18 00:17:45;;;;;;;3.65;3.35;;;;;;;15.4;58.4082;95974.42;;;;
2022/06/18 00:18:46;;;;;;;3.65;3.35;;;;;;;15.4;58.4082;95974.42;;;;
2022/06/18 00:19:48;;;;;;;3.65;3.35;;;;;;;15.4;58.4082;95974.42;;;;
2022/06/18 00:20:48;;;;;;;3.65;3.35;;;;;;;15.4;58.4082;95974.42;;;;
2022/06/18 00:21:49;;;;;;;3.75;3.45;;;;;;;15.45;58.53613;95962.03;;;;
2022/06/18 00:22:50;;;;;;;3.75;3.45;;;;;;;15.45;58.53613;95962.03;;;;
2022/06/18 00:23:54;;;;;;;3.75;3.45;;;;;;;15.45;58.53613;95962.03;;;;
2022/06/18 00:24:55;;;;;;;3.75;3.45;;;;;;;15.45;58.53613;95962.03;;;;
2022/06/18 00:25:56;;;;;;;3.75;3.45;;;;;;;15.45;58.53613;95962.03;;;;
2022/06/18 00:26:57;;;;;;;3.75;3.45;;;;;;;15.45;58.53613;95962.03;;;;
2022/06/18 00:27:57;;;;;;;3.75;3.45;;;;;;;15.45;58.53613;95962.03;;;;
2022/06/18 00:28:58;;;;;;;3.75;3.45;;;;;;;15.45;58.53613;95962.03;;;;
2022/06/18 00:29:59;;;;;;;3.75;3.45;;;;;;;15.45;58.53613;95962.03;;;;
2022/06/18 00:30:59;;;;;;;3.75;3.45;;;;;;;15.45;58.53613;95962.03;;;;
2022/06/18 00:32:00;;;;;;;3.75;3.45;;;;;;;15.45;58.53613;95962.03;;;;
2022/06/18 00:33:00;;;;;;;4.5;3.45;;;;;;;15.52;58.52344;95961.44;;;;
2022/06/18 00:34:01;;;;;;;4.5;3.45;;;;;;;15.52;58.52344;95961.44;;;;
2022/06/18 00:35:01;;;;;;;4.5;3.45;;;;;;;15.52;58.52344;95961.44;;;;
2022/06/18 00:36:02;;;;;;;4.5;3.45;;;;;;;15.52;58.52344;95961.44;;;;
2022/06/18 00:37:05;;;;;;;4.5;3.45;;;;;;;15.52;58.52344;95961.44;;;;
2022/06/18 00:38:07;;;;;;;4.5;3.45;;;;;;;15.52;58.52344;95961.44;;;;
2022/06/18 00:39:22;;;;;;;4.5;3.45;;;;;;;15.52;58.52344;95961.44;;;;
2022/06/18 00:40:23;;;;;;;4.5;3.45;;;;;;;15.52;58.52344;95961.44;;;;
2022/06/18 00:41:26;;;;;;;4.5;3.45;;;;;;;15.52;58.52344;95961.44;;;;
2022/06/18 00:42:27;;;;;;;4.5;3.45;;;;;;;15.52;58.52344;95961.44;;;;
2022/06/18 00:43:31;;;;;;;5.2;3.7;;;;;;;15.46;58.83301;95963.67;;;;
2022/06/18 00:44:36;;;;;;;5.2;3.7;;;;;;;15.46;58.83301;95963.67;;;;
2022/06/18 00:45:41;;;;;;;5.2;3.7;;;;;;;15.46;58.83301;95963.67;;;;
2022/06/18 00:46:42;;;;;;;5.2;3.7;;;;;;;15.46;58.83301;95963.67;;;;
2022/06/18 00:47:50;;;;;;;5.2;3.7;;;;;;;15.46;58.83301;95963.67;;;;
2022/06/18 00:48:58;;;;;;;5.2;3.7;;;;;;;15.46;58.83301;95963.67;;;;
2022/06/18 00:50:05;;;;;;;5.2;3.7;;;;;;;15.46;58.83301;95963.67;;;;
2022/06/18 00:51:15;;;;;;;5.2;3.7;;;;;;;15.46;58.83301;95963.67;;;;
2022/06/18 00:52:20;;;;;;;5.2;3.7;;;;;;;15.46;58.83301;95963.67;;;;
2022/06/18 00:53:26;;;;;;;4.6;3.4;;;;;;;15.47;58.9541;95956.48;;;;
2022/06/18 00:54:33;;;;;;;4.6;3.4;;;;;;;15.47;58.9541;95956.48;;;;
2022/06/18 00:55:39;;;;;;;4.6;3.4;;;;;;;15.47;58.9541;95956.48;;;;
2022/06/18 00:56:45;;;;;;;4.6;3.4;;;;;;;15.47;58.9541;95956.48;;;;
2022/06/18 00:57:53;;;;;;;4.6;3.4;;;;;;;15.47;58.9541;95956.48;;;;
2022/06/18 00:58:57;;;;;;;4.6;3.4;;;;;;;15.47;58.9541;95956.48;;;;
2022/06/18 01:00:01;;;;;;;4.6;3.4;;;;;;;15.47;58.9541;95956.48;;;;
2022/06/18 01:01:08;;;;;;;4.6;3.4;;;;;;;15.47;58.9541;95956.48;;;;
2022/06/18 01:02:15;;;;;;;4.6;3.4;;;;;;;15.47;58.9541;95956.48;;;;
2022/06/18 01:03:21;;;;;;;4.6;3.4;;;;;;;15.47;58.9541;95956.48;;;;
2022/06/18 01:04:24;;;;;;;3.7;3.25;;;;;;;15.35;59.1875;95961.84;;;;
2022/06/18 01:05:28;;;;;;;3.7;3.25;;;;;;;15.35;59.1875;95961.84;;;;
2022/06/18 01:06:35;;;;;;;3.7;3.25;;;;;;;15.35;59.1875;95961.84;;;;
2022/06/18 01:07:37;;;;;;;3.7;3.25;;;;;;;15.35;59.1875;95961.84;;;;
2022/06/18 01:08:39;;;;;;;3.7;3.25;;;;;;;15.35;59.1875;95961.84;;;;
2022/06/18 01:09:41;;;;;;;3.7;3.25;;;;;;;15.35;59.1875;95961.84;;;;
2022/06/18 01:10:44;;;;;;;3.7;3.25;;;;;;;15.35;59.1875;95961.84;;;;
2022/06/18 01:11:48;;;;;;;3.7;3.25;;;;;;;15.35;59.1875;95961.84;;;;
2022/06/18 01:12:49;;;;;;;3.7;3.25;;;;;;;15.35;59.1875;95961.84;;;;
2022/06/18 01:13:49;;;;;;;3.7;3.25;;;;;;;15.35;59.1875;95961.84;;;;
2022/06/18 01:14:50;;;;;;;3.55;3.25;;;;;;;15.23;59.56641;95961.38;;;;
2022/06/18 01:15:58;;;;;;;3.55;3.25;;;;;;;15.23;59.56641;95961.38;;;;
2022/06/18 01:16:59;;;;;;;3.55;3.25;;;;;;;15.23;59.56641;95961.38;;;;
2022/06/18 01:18:03;;;;;;;3.55;3.25;;;;;;;15.23;59.56641;95961.38;;;;
2022/06/18 01:19:05;;;;;;;3.55;3.25;;;;;;;15.23;59.56641;95961.38;;;;
2022/06/18 01:20:17;;;;;;;3.55;3.25;;;;;;;15.23;59.56641;95961.38;;;;
2022/06/18 01:21:18;;;;;;;3.55;3.25;;;;;;;15.23;59.56641;95961.38;;;;
2022/06/18 01:22:30;;;;;;;3.55;3.25;;;;;;;15.23;59.56641;95961.38;;;;
2022/06/18 01:23:38;;;;;;;3.55;3.25;;;;;;;15.23;59.56641;95961.38;;;;
2022/06/18 01:24:45;;;;;;;3.55;3.25;;;;;;;15.23;59.56641;95961.38;;;;
2022/06/18 01:25:47;;;;;;;3.5;3.2;;;;;;;15.12;59.8584;95958.95;;;;
2022/06/18 01:26:48;;;;;;;3.5;3.2;;;;;;;15.12;59.8584;95958.95;;;;
2022/06/18 01:27:52;;;;;;;3.5;3.2;;;;;;;15.12;59.8584;95958.95;;;;
2022/06/18 01:28:54;;;;;;;3.5;3.2;;;;;;;15.12;59.8584;95958.95;;;;
2022/06/18 01:29:54;;;;;;;3.5;3.2;;;;;;;15.12;59.8584;95958.95;;;;
2022/06/18 01:30:55;;;;;;;3.5;3.2;;;;;;;15.12;59.8584;95958.95;;;;
2022/06/18 01:31:56;;;;;;;3.5;3.2;;;;;;;15.12;59.8584;95958.95;;;;
2022/06/18 01:32:56;;;;;;;3.5;3.2;;;;;;;15.12;59.8584;95958.95;;;;
2022/06/18 01:33:57;;;;;;;3.5;3.2;;;;;;;15.12;59.8584;95958.95;;;;
2022/06/18 01:34:59;;;;;;;3.5;3.2;;;;;;;15.12;59.8584;95958.95;;;;
2022/06/18 01:36:00;;;;;;;3.400001;3.2;;;;;;;15.08;60.02734;95965.75;;;;
2022/06/18 01:37:05;;;;;;;3.400001;3.2;;;;;;;15.08;60.02734;95965.75;;;;
2022/06/18 01:38:07;;;;;;;3.400001;3.2;;;;;;;15.08;60.02734;95965.75;;;;
2022/06/18 01:39:09;;;;;;;3.400001;3.2;;;;;;;15.08;60.02734;95965.75;;;;
2022/06/18 01:40:15;;;;;;;3.400001;3.2;;;;;;;15.08;60.02734;95965.75;;;;
2022/06/18 01:41:58;;;;;;;3.400001;3.2;;;;;;;15.08;60.02734;95965.75;;;;
2022/06/18 01:43:03;;;;;;;3.400001;3.2;;;;;;;15.08;60.02734;95965.75;;;;
2022/06/18 01:44:07;;;;;;;3.400001;3.2;;;;;;;15.08;60.02734;95965.75;;;;
2022/06/18 01:45:12;;;;;;;3.400001;3.2;;;;;;;15.08;60.02734;95965.75;;;;
2022/06/18 01:46:18;;;;;;;3.400001;3.2;;;;;;;15.08;60.02734;95965.75;;;;
2022/06/18 01:47:18;;;;;;;4;3.4;;;;;;;14.92;60.38672;95960.21;;;;
2022/06/18 01:48:24;;;;;;;4;3.4;;;;;;;14.92;60.38672;95960.21;;;;
2022/06/18 01:49:27;;;;;;;4;3.4;;;;;;;14.92;60.38672;95960.21;;;;
2022/06/18 01:50:38;;;;;;;4;3.4;;;;;;;14.92;60.38672;95960.21;;;;
2022/06/18 01:51:47;;;;;;;4;3.4;;;;;;;14.92;60.38672;95960.21;;;;
2022/06/18 01:52:49;;;;;;;4;3.4;;;;;;;14.92;60.38672;95960.21;;;;
2022/06/18 01:53:56;;;;;;;4;3.4;;;;;;;14.92;60.38672;95960.21;;;;
2022/06/18 01:55:02;;;;;;;4;3.4;;;;;;;14.92;60.38672;95960.21;;;;
2022/06/18 01:56:10;;;;;;;4;3.4;;;;;;;14.92;60.38672;95960.21;;;;
2022/06/18 01:57:17;;;;;;;4;3.4;;;;;;;14.92;60.38672;95960.21;;;;
2022/06/18 01:58:24;;;;;;;4;3.5;;;;;;;14.78;60.65234;95947.57;;;;
2022/06/18 01:59:30;;;;;;;4;3.5;;;;;;;14.78;60.65234;95947.57;;;;
2022/06/18 02:00:35;;;;;;;4;3.5;;;;;;;14.78;60.65234;95947.57;;;;
2022/06/18 02:01:35;;;;;;;4;3.5;;;;;;;14.78;60.65234;95947.57;;;;
2022/06/18 02:02:40;;;;;;;4;3.5;;;;;;;14.78;60.65234;95947.57;;;;
2022/06/18 02:03:41;;;;;;;4;3.5;;;;;;;14.78;60.65234;95947.57;;;;
2022/06/18 02:04:41;;;;;;;4;3.5;;;;;;;14.78;60.65234;95947.57;;;;
2022/06/18 02:05:42;;;;;;;4;3.5;;;;;;;14.78;60.65234;95947.57;;;;
2022/06/18 02:06:43;;;;;;;4;3.5;;;;;;;14.78;60.65234;95947.57;;;;
2022/06/18 02:07:45;;;;;;;4;3.5;;;;;;;14.78;60.65234;95947.57;;;;
2022/06/18 02:08:47;;;;;;;4;3.6;;;;;;;14.62;61.03223;95936.17;;;;
2022/06/18 02:09:47;;;;;;;4;3.6;;;;;;;14.62;61.03223;95936.17;;;;
2022/06/18 02:10:54;;;;;;;4;3.6;;;;;;;14.62;61.03223;95936.17;;;;
2022/06/18 02:11:59;;;;;;;4;3.6;;;;;;;14.62;61.03223;95936.17;;;;
2022/06/18 02:13:03;;;;;;;4;3.6;;;;;;;14.62;61.03223;95936.17;;;;
2022/06/18 02:14:05;;;;;;;4;3.6;;;;;;;14.62;61.03223;95936.17;;;;
2022/06/18 02:15:09;;;;;;;4;3.6;;;;;;;14.62;61.03223;95936.17;;;;
2022/06/18 02:16:13;;;;;;;4;3.6;;;;;;;14.62;61.03223;95936.17;;;;
2022/06/18 02:17:18;;;;;;;4;3.6;;;;;;;14.62;61.03223;95936.17;;;;
2022/06/18 02:18:21;;;;;;;4;3.6;;;;;;;14.62;61.03223;95936.17;;;;
2022/06/18 02:19:22;;;;;;;3.85;3.55;;;;;;;14.57;61.30957;95926.29;;;;
2022/06/18 02:20:23;;;;;;;3.85;3.55;;;;;;;14.57;61.30957;95926.29;;;;
2022/06/18 02:21:26;;;;;;;3.85;3.55;;;;;;;14.57;61.30957;95926.29;;;;
2022/06/18 02:22:29;;;;;;;3.85;3.55;;;;;;;14.57;61.30957;95926.29;;;;
2022/06/18 02:23:34;;;;;;;3.85;3.55;;;;;;;14.57;61.30957;95926.29;;;;
2022/06/18 02:24:35;;;;;;;3.85;3.55;;;;;;;14.57;61.30957;95926.29;;;;
2022/06/18 02:25:36;;;;;;;3.85;3.55;;;;;;;14.57;61.30957;95926.29;;;;
2022/06/18 02:26:38;;;;;;;3.85;3.55;;;;;;;14.57;61.30957;95926.29;;;;
2022/06/18 02:27:39;;;;;;;3.85;3.55;;;;;;;14.57;61.30957;95926.29;;;;
2022/06/18 02:28:41;;;;;;;3.85;3.55;;;;;;;14.57;61.30957;95926.29;;;;
2022/06/18 02:29:43;;;;;;;5.9;3.65;;;;;;;14.39;61.58984;95926.14;;;;
2022/06/18 02:30:45;;;;;;;5.9;3.65;;;;;;;14.39;61.58984;95926.14;;;;
2022/06/18 02:31:45;;;;;;;5.9;3.65;;;;;;;14.39;61.58984;95926.14;;;;
2022/06/18 02:32:46;;;;;;;5.9;3.65;;;;;;;14.39;61.58984;95926.14;;;;
2022/06/18 02:33:55;;;;;;;5.9;3.65;;;;;;;14.39;61.58984;95926.14;;;;
2022/06/18 02:35:01;;;;;;;5.9;3.65;;;;;;;14.39;61.58984;95926.14;;;;
2022/06/18 02:36:02;;;;;;;5.9;3.65;;;;;;;14.39;61.58984;95926.14;;;;
2022/06/18 02:37:10;;;;;;;5.9;3.65;;;;;;;14.39;61.58984;95926.14;;;;
2022/06/18 02:38:19;;;;;;;5.9;3.65;;;;;;;14.39;61.58984;95926.14;;;;
2022/06/18 02:39:22;;;;;;;5.9;3.65;;;;;;;14.39;61.58984;95926.14;;;;
2022/06/18 02:40:30;;;;;;;4.85;3.6;;;;;;;14.29;61.87988;95930.77;;;;
2022/06/18 02:41:31;;;;;;;4.85;3.6;;;;;;;14.29;61.87988;95930.77;;;;
2022/06/18 02:42:31;;;;;;;4.85;3.6;;;;;;;14.29;61.87988;95930.77;;;;
2022/06/18 02:43:34;;;;;;;4.85;3.6;;;;;;;14.29;61.87988;95930.77;;;;
2022/06/18 02:44:34;;;;;;;4.85;3.6;;;;;;;14.29;61.87988;95930.77;;;;
2022/06/18 02:45:36;;;;;;;4.85;3.6;;;;;;;14.29;61.87988;95930.77;;;;
2022/06/18 02:46:38;;;;;;;4.85;3.6;;;;;;;14.29;61.87988;95930.77;;;;
2022/06/18 02:47:39;;;;;;;4.85;3.6;;;;;;;14.29;61.87988;95930.77;;;;
2022/06/18 02:48:40;;;;;;;4.85;3.6;;;;;;;14.29;61.87988;95930.77;;;;
2022/06/18 02:49:41;;;;;;;4.85;3.6;;;;;;;14.29;61.87988;95930.77;;;;
2022/06/18 02:50:45;;;;;;;4.3;4;;;;;;;14.16;62.14453;95934.01;;;;
2022/06/18 02:51:46;;;;;;;4.3;4;;;;;;;14.16;62.14453;95934.01;;;;
2022/06/18 02:52:46;;;;;;;4.3;4;;;;;;;14.16;62.14453;95934.01;;;;
2022/06/18 02:53:50;;;;;;;4.3;4;;;;;;;14.16;62.14453;95934.01;;;;
2022/06/18 02:54:50;;;;;;;4.3;4;;;;;;;14.16;62.14453;95934.01;;;;
2022/06/18 02:55:59;;;;;;;4.3;4;;;;;;;14.16;62.14453;95934.01;;;;
2022/06/18 02:57:03;;;;;;;4.3;4;;;;;;;14.16;62.14453;95934.01;;;;
2022/06/18 02:58:10;;;;;;;4.3;4;;;;;;;14.16;62.14453;95934.01;;;;
2022/06/18 02:59:14;;;;;;;4.3;4;;;;;;;14.16;62.14453;95934.01;;;;
2022/06/18 03:00:14;;;;;;;4.3;4;;;;;;;14.16;62.14453;95934.01;;;;
2022/06/18 03:01:15;;;;;;;4.3;4;;;;;;;14.16;62.14453;95934.01;;;;
2022/06/18 03:02:18;;;;;;;4.3;4;;;;;;;14.16;62.14453;95934.01;;;;
2022/06/18 03:03:19;;;;;;;4.3;4;;;;;;;14.16;62.14453;95934.01;;;;
2022/06/18 03:04:22;;;;;;;4.3;4;;;;;;;14.16;62.14453;95934.01;;;;
2022/06/18 03:05:23;;;;;;;4.3;4;;;;;;;14.16;62.14453;95934.01;;;;
2022/06/18 03:06:27;;;;;;;4.3;4;;;;;;;14.16;62.14453;95934.01;;;;
2022/06/18 03:07:30;;;;;;;4.3;4;;;;;;;14.16;62.14453;95934.01;;;;
2022/06/18 03:08:31;;;;;;;4.3;4;;;;;;;14.16;62.14453;95934.01;;;;
2022/06/18 03:12:06;;;;;;;4.3;4;;;;;;;14.16;62.14453;95934.01;;;;
2022/06/18 03:13:07;;;;;;;4;3.6;;;;;;;14.02;62.72363;95924.95;;;;
2022/06/18 03:14:08;;;;;;;4;3.6;;;;;;;14.02;62.72363;95924.95;;;;
2022/06/18 03:15:11;;;;;;;4;3.6;;;;;;;14.02;62.72363;95924.95;;;;
2022/06/18 03:16:12;;;;;;;4;3.6;;;;;;;14.02;62.72363;95924.95;;;;
2022/06/18 03:17:15;;;;;;;4;3.6;;;;;;;14.02;62.72363;95924.95;;;;
2022/06/18 03:18:16;;;;;;;4;3.6;;;;;;;14.02;62.72363;95924.95;;;;
2022/06/18 03:19:23;;;;;;;4;3.6;;;;;;;14.02;62.72363;95924.95;;;;
2022/06/18 03:20:33;;;;;;;4;3.6;;;;;;;14.02;62.72363;95924.95;;;;
2022/06/18 03:21:49;;;;;;;4;3.6;;;;;;;14.02;62.72363;95924.95;;;;
2022/06/18 03:22:52;;;;;;;4.699999;3.8;;;;;;;14;63.00391;95927;;;;
2022/06/18 03:23:53;;;;;;;4.699999;3.8;;;;;;;14;63.00391;95927;;;;
2022/06/18 03:24:54;;;;;;;4.699999;3.8;;;;;;;14;63.00391;95927;;;;
2022/06/18 03:25:54;;;;;;;4.699999;3.8;;;;;;;14;63.00391;95927;;;;
2022/06/18 03:26:55;;;;;;;4.699999;3.8;;;;;;;14;63.00391;95927;;;;
2022/06/18 03:27:56;;;;;;;4.699999;3.8;;;;;;;14;63.00391;95927;;;;
2022/06/18 03:28:56;;;;;;;4.699999;3.8;;;;;;;14;63.00391;95927;;;;
2022/06/18 03:29:57;;;;;;;4.699999;3.8;;;;;;;14;63.00391;95927;;;;
2022/06/18 03:30:57;;;;;;;4.699999;3.8;;;;;;;14;63.00391;95927;;;;
2022/06/18 03:31:58;;;;;;;4.699999;3.8;;;;;;;14;63.00391;95927;;;;
2022/06/18 03:33:00;;;;;;;4.699999;3.8;;;;;;;14;63.00391;95927;;;;
2022/06/18 03:34:00;;;;;;;6.650001;3.8;;;;;;;14.06;63.02441;95929.19;;;;
2022/06/18 03:35:01;;;;;;;6.650001;3.8;;;;;;;14.06;63.02441;95929.19;;;;
2022/06/18 03:36:02;;;;;;;6.650001;3.8;;;;;;;14.06;63.02441;95929.19;;;;
2022/06/18 03:37:04;;;;;;;6.650001;3.8;;;;;;;14.06;63.02441;95929.19;;;;
2022/06/18 03:38:04;;;;;;;6.650001;3.8;;;;;;;14.06;63.02441;95929.19;;;;
2022/06/18 03:39:05;;;;;;;6.650001;3.8;;;;;;;14.06;63.02441;95929.19;;;;
2022/06/18 03:40:07;;;;;;;6.650001;3.8;;;;;;;14.06;63.02441;95929.19;;;;
2022/06/18 03:41:12;;;;;;;6.650001;3.8;;;;;;;14.06;63.02441;95929.19;;;;
2022/06/18 03:42:14;;;;;;;6.650001;3.8;;;;;;;14.06;63.02441;95929.19;;;;
2022/06/18 03:43:14;;;;;;;6.650001;3.8;;;;;;;14.06;63.02441;95929.19;;;;
2022/06/18 03:44:14;;;;;;;4.4;3.55;;;;;;;14.25;62.99609;95926.48;;;;
2022/06/18 03:45:16;;;;;;;4.4;3.55;;;;;;;14.25;62.99609;95926.48;;;;
2022/06/18 03:46:16;;;;;;;4.4;3.55;;;;;;;14.25;62.99609;95926.48;;;;
2022/06/18 03:47:18;;;;;;;4.4;3.55;;;;;;;14.25;62.99609;95926.48;;;;
2022/06/18 03:48:18;;;;;;;4.4;3.55;;;;;;;14.25;62.99609;95926.48;;;;
2022/06/18 03:49:23;;;;;;;4.4;3.55;;;;;;;14.25;62.99609;95926.48;;;;
2022/06/18 03:50:26;;;;;;;4.4;3.55;;;;;;;14.25;62.99609;95926.48;;;;
2022/06/18 03:51:27;;;;;;;4.4;3.55;;;;;;;14.25;62.99609;95926.48;;;;
2022/06/18 03:52:28;;;;;;;4.4;3.55;;;;;;;14.25;62.99609;95926.48;;;;
2022/06/18 03:53:28;;;;;;;4.4;3.55;;;;;;;14.25;62.99609;95926.48;;;;
2022/06/18 03:54:29;;;;;;;4.4;3.55;;;;;;;14.25;62.99609;95926.48;;;;
2022/06/18 03:55:29;;;;;;;3.55;3.25;;;;;;;14.48;62.98633;95918.19;;;;
2022/06/18 03:56:31;;;;;;;3.55;3.25;;;;;;;14.48;62.98633;95918.19;;;;
2022/06/18 03:57:32;;;;;;;3.55;3.25;;;;;;;14.48;62.98633;95918.19;;;;
2022/06/18 03:58:33;;;;;;;3.55;3.25;;;;;;;14.48;62.98633;95918.19;;;;
2022/06/18 03:59:34;;;;;;;3.55;3.25;;;;;;;14.48;62.98633;95918.19;;;;
2022/06/18 04:00:34;;;;;;;3.55;3.25;;;;;;;14.48;62.98633;95918.19;;;;
2022/06/18 04:01:40;;;;;;;3.55;3.25;;;;;;;14.48;62.98633;95918.19;;;;
2022/06/18 04:02:40;;;;;;;3.55;3.25;;;;;;;14.48;62.98633;95918.19;;;;
2022/06/18 04:03:41;;;;;;;3.55;3.25;;;;;;;14.48;62.98633;95918.19;;;;
2022/06/18 04:04:41;;;;;;;3.55;3.25;;;;;;;14.48;62.98633;95918.19;;;;
2022/06/18 04:05:42;;;;;;;3.65;3.35;;;;;;;14.79;62.83301;95909.77;;;;
2022/06/18 04:06:43;;;;;;;3.65;3.35;;;;;;;14.79;62.83301;95909.77;;;;
2022/06/18 04:07:43;;;;;;;3.65;3.35;;;;;;;14.79;62.83301;95909.77;;;;
2022/06/18 04:08:44;;;;;;;3.65;3.35;;;;;;;14.79;62.83301;95909.77;;;;
2022/06/18 04:09:49;;;;;;;3.65;3.35;;;;;;;14.79;62.83301;95909.77;;;;
2022/06/18 04:10:50;;;;;;;3.65;3.35;;;;;;;14.79;62.83301;95909.77;;;;
2022/06/18 04:11:50;;;;;;;3.65;3.35;;;;;;;14.79;62.83301;95909.77;;;;
2022/06/18 04:12:51;;;;;;;3.65;3.35;;;;;;;14.79;62.83301;95909.77;;;;
2022/06/18 04:13:51;;;;;;;3.65;3.35;;;;;;;14.79;62.83301;95909.77;;;;
2022/06/18 04:14:52;;;;;;;3.65;3.35;;;;;;;14.79;62.83301;95909.77;;;;
2022/06/18 04:15:53;;;;;;;3.65;3.35;;;;;;;14.79;62.83301;95909.77;;;;
2022/06/18 04:16:54;;;;;;;3.9;3.6;;;;;;;15.02;62.70313;95920.04;;;;
2022/06/18 04:17:54;;;;;;;3.9;3.6;;;;;;;15.02;62.70313;95920.04;;;;
2022/06/18 04:18:54;;;;;;;3.9;3.6;;;;;;;15.02;62.70313;95920.04;;;;
2022/06/18 04:19:55;;;;;;;3.9;3.6;;;;;;;15.02;62.70313;95920.04;;;;
2022/06/18 04:20:56;;;;;;;3.9;3.6;;;;;;;15.02;62.70313;95920.04;;;;
2022/06/18 04:21:56;;;;;;;3.9;3.6;;;;;;;15.02;62.70313;95920.04;;;;
2022/06/18 04:22:57;;;;;;;3.9;3.6;;;;;;;15.02;62.70313;95920.04;;;;
2022/06/18 04:23:58;;;;;;;3.9;3.6;;;;;;;15.02;62.70313;95920.04;;;;
2022/06/18 04:24:58;;;;;;;3.9;3.6;;;;;;;15.02;62.70313;95920.04;;;;
2022/06/18 04:25:59;;;;;;;3.9;3.6;;;;;;;15.02;62.70313;95920.04;;;;
2022/06/18 04:26:59;;;;;;;3.6;3.3;;;;;;;15.31;62.64648;95905.53;;;;
2022/06/18 04:28:00;;;;;;;3.6;3.3;;;;;;;15.31;62.64648;95905.53;;;;
2022/06/18 04:29:00;;;;;;;3.6;3.3;;;;;;;15.31;62.64648;95905.53;;;;
2022/06/18 04:30:01;;;;;;;3.6;3.3;;;;;;;15.31;62.64648;95905.53;;;;
2022/06/18 04:31:02;;;;;;;3.6;3.3;;;;;;;15.31;62.64648;95905.53;;;;
2022/06/18 04:32:04;;;;;;;3.6;3.3;;;;;;;15.31;62.64648;95905.53;;;;
2022/06/18 04:33:05;;;;;;;3.6;3.3;;;;;;;15.31;62.64648;95905.53;;;;
2022/06/18 04:34:06;;;;;;;3.6;3.3;;;;;;;15.31;62.64648;95905.53;;;;
2022/06/18 04:35:07;;;;;;;3.6;3.3;;;;;;;15.31;62.64648;95905.53;;;;
2022/06/18 04:36:11;;;;;;;3.6;3.3;;;;;;;15.31;62.64648;95905.53;;;;
2022/06/18 04:37:20;;;;;;;3.6;3.3;;;;;;;15.31;62.64648;95905.53;;;;
2022/06/18 04:38:21;;;;;;;3.9;3.3;;;;;;;15.58;62.57422;95891.74;;;;
2022/06/18 04:39:24;;;;;;;3.9;3.3;;;;;;;15.58;62.57422;95891.74;;;;
2022/06/18 04:40:28;;;;;;;3.9;3.3;;;;;;;15.58;62.57422;95891.74;;;;
2022/06/18 04:41:32;;;;;;;3.9;3.3;;;;;;;15.58;62.57422;95891.74;;;;
2022/06/18 04:42:32;;;;;;;3.9;3.3;;;;;;;15.58;62.57422;95891.74;;;;
2022/06/18 04:43:33;;;;;;;3.9;3.3;;;;;;;15.58;62.57422;95891.74;;;;
2022/06/18 04:44:33;;;;;;;3.9;3.3;;;;;;;15.58;62.57422;95891.74;;;;
2022/06/18 04:45:34;;;;;;;3.9;3.3;;;;;;;15.58;62.57422;95891.74;;;;
2022/06/18 04:46:35;;;;;;;3.9;3.3;;;;;;;15.58;62.57422;95891.74;;;;
2022/06/18 04:47:36;;;;;;;3.9;3.3;;;;;;;15.58;62.57422;95891.74;;;;
2022/06/18 04:48:37;;;;;;;4.05;3.35;;;;;;;16.02;62.2334;95899.25;;;;
2022/06/18 04:49:37;;;;;;;4.05;3.35;;;;;;;16.02;62.2334;95899.25;;;;
2022/06/18 04:50:38;;;;;;;4.05;3.35;;;;;;;16.02;62.2334;95899.25;;;;
2022/06/18 04:51:40;;;;;;;4.05;3.35;;;;;;;16.02;62.2334;95899.25;;;;
2022/06/18 04:52:41;;;;;;;4.05;3.35;;;;;;;16.02;62.2334;95899.25;;;;
2022/06/18 04:53:41;;;;;;;4.05;3.35;;;;;;;16.02;62.2334;95899.25;;;;
2022/06/18 04:54:42;;;;;;;4.05;3.35;;;;;;;16.02;62.2334;95899.25;;;;
2022/06/18 04:55:43;;;;;;;4.05;3.35;;;;;;;16.02;62.2334;95899.25;;;;
2022/06/18 04:56:43;;;;;;;4.05;3.35;;;;;;;16.02;62.2334;95899.25;;;;
2022/06/18 04:57:44;;;;;;;4.05;3.35;;;;;;;16.02;62.2334;95899.25;;;;
2022/06/18 04:58:44;;;;;;;4.05;3.35;;;;;;;16.02;62.2334;95899.25;;;;
2022/06/18 04:59:45;;;;;;;4.249999;3.3;;;;;;;16.41;61.84961;95901.25;;;;
2022/06/18 05:00:45;;;;;;;4.249999;3.3;;;;;;;16.41;61.84961;95901.25;;;;
2022/06/18 05:01:46;;;;;;;4.249999;3.3;;;;;;;16.41;61.84961;95901.25;;;;
2022/06/18 05:02:58;;;;;;;4.249999;3.3;;;;;;;16.41;61.84961;95901.25;;;;
2022/06/18 05:03:58;;;;;;;4.249999;3.3;;;;;;;16.41;61.84961;95901.25;;;;
2022/06/18 05:04:59;;;;;;;4.249999;3.3;;;;;;;16.41;61.84961;95901.25;;;;
2022/06/18 05:06:00;;;;;;;4.249999;3.3;;;;;;;16.41;61.84961;95901.25;;;;
2022/06/18 05:07:01;;;;;;;4.249999;3.3;;;;;;;16.41;61.84961;95901.25;;;;
2022/06/18 05:08:01;;;;;;;4.249999;3.3;;;;;;;16.41;61.84961;95901.25;;;;
2022/06/18 05:09:02;;;;;;;4.249999;3.3;;;;;;;16.41;61.84961;95901.25;;;;
2022/06/18 05:10:03;;;;;;;3.7;3.3;;;;;;;16.94;61.43164;95890.81;;;;
2022/06/18 05:11:05;;;;;;;3.7;3.3;;;;;;;16.94;61.43164;95890.81;;;;
2022/06/18 05:12:05;;;;;;;3.7;3.3;;;;;;;16.94;61.43164;95890.81;;;;
2022/06/18 05:13:07;;;;;;;3.7;3.3;;;;;;;16.94;61.43164;95890.81;;;;
2022/06/18 05:14:07;;;;;;;3.7;3.3;;;;;;;16.94;61.43164;95890.81;;;;
2022/06/18 05:15:08;;;;;;;3.7;3.3;;;;;;;16.94;61.43164;95890.81;;;;
2022/06/18 05:16:10;;;;;;;3.7;3.3;;;;;;;16.94;61.43164;95890.81;;;;
2022/06/18 05:17:10;;;;;;;3.7;3.3;;;;;;;16.94;61.43164;95890.81;;;;
2022/06/18 05:18:16;;;;;;;3.7;3.3;;;;;;;16.94;61.43164;95890.81;;;;
2022/06/18 05:19:17;;;;;;;3.7;3.3;;;;;;;16.94;61.43164;95890.81;;;;
2022/06/18 05:20:24;;;;;;;3.65;3.35;;;;;;;17.41;61.0127;95903.1;;;;
2022/06/18 05:21:25;;;;;;;3.65;3.35;;;;;;;17.41;61.0127;95903.1;;;;
2022/06/18 05:22:25;;;;;;;3.65;3.35;;;;;;;17.41;61.0127;95903.1;;;;
2022/06/18 05:23:27;;;;;;;3.65;3.35;;;;;;;17.41;61.0127;95903.1;;;;
2022/06/18 05:24:28;;;;;;;3.65;3.35;;;;;;;17.41;61.0127;95903.1;;;;
2022/06/18 05:25:29;;;;;;;3.65;3.35;;;;;;;17.41;61.0127;95903.1;;;;
2022/06/18 05:26:30;;;;;;;3.65;3.35;;;;;;;17.41;61.0127;95903.1;;;;
2022/06/18 05:27:30;;;;;;;3.65;3.35;;;;;;;17.41;61.0127;95903.1;;;;
2022/06/18 05:28:33;;;;;;;3.65;3.35;;;;;;;17.41;61.0127;95903.1;;;;
2022/06/18 05:29:34;;;;;;;3.65;3.35;;;;;;;17.41;61.0127;95903.1;;;;
2022/06/18 05:30:34;;;;;;;3.65;3.35;;;;;;;17.41;61.0127;95903.1;;;;
2022/06/18 05:31:35;;;;;;;3.4;3.2;;;;;;;17.94;60.52734;95906.09;;;;
2022/06/18 05:32:35;;;;;;;3.4;3.2;;;;;;;17.94;60.52734;95906.09;;;;
2022/06/18 05:33:36;;;;;;;3.4;3.2;;;;;;;17.94;60.52734;95906.09;;;;
2022/06/18 05:34:36;;;;;;;3.4;3.2;;;;;;;17.94;60.52734;95906.09;;;;
2022/06/18 05:35:37;;;;;;;3.4;3.2;;;;;;;17.94;60.52734;95906.09;;;;
2022/06/18 05:36:40;;;;;;;3.4;3.2;;;;;;;17.94;60.52734;95906.09;;;;
2022/06/18 05:37:40;;;;;;;3.4;3.2;;;;;;;17.94;60.52734;95906.09;;;;
2022/06/18 05:38:41;;;;;;;3.4;3.2;;;;;;;17.94;60.52734;95906.09;;;;
2022/06/18 05:39:42;;;;;;;3.4;3.2;;;;;;;17.94;60.52734;95906.09;;;;
2022/06/18 05:40:42;;;;;;;3.4;3.2;;;;;;;17.94;60.52734;95906.09;;;;
2022/06/18 05:41:43;;;;;;;4.4;3.15;;;;;;;18.39;60.13574;95897.61;;;;
2022/06/18 05:42:44;;;;;;;4.4;3.15;;;;;;;18.39;60.13574;95897.61;;;;
2022/06/18 05:43:44;;;;;;;4.4;3.15;;;;;;;18.39;60.13574;95897.61;;;;
2022/06/18 05:44:45;;;;;;;4.4;3.15;;;;;;;18.39;60.13574;95897.61;;;;
2022/06/18 05:45:45;;;;;;;4.4;3.15;;;;;;;18.39;60.13574;95897.61;;;;
2022/06/18 05:46:46;;;;;;;4.4;3.15;;;;;;;18.39;60.13574;95897.61;;;;
2022/06/18 05:47:47;;;;;;;4.4;3.15;;;;;;;18.39;60.13574;95897.61;;;;
2022/06/18 05:48:48;;;;;;;4.4;3.15;;;;;;;18.39;60.13574;95897.61;;;;
2022/06/18 05:49:49;;;;;;;4.4;3.15;;;;;;;18.39;60.13574;95897.61;;;;
2022/06/18 05:50:52;;;;;;;4.4;3.15;;;;;;;18.39;60.13574;95897.61;;;;
2022/06/18 05:51:53;;;;;;;4.4;3.15;;;;;;;18.39;60.13574;95897.61;;;;
2022/06/18 05:52:53;;;;;;;3.299999;3;;;;;;;18.94;59.64941;95893.44;;;;
2022/06/18 05:53:54;;;;;;;3.299999;3;;;;;;;18.94;59.64941;95893.44;;;;
2022/06/18 05:54:55;;;;;;;3.299999;3;;;;;;;18.94;59.64941;95893.44;;;;
2022/06/18 05:55:56;;;;;;;3.299999;3;;;;;;;18.94;59.64941;95893.44;;;;
2022/06/18 05:56:56;;;;;;;3.299999;3;;;;;;;18.94;59.64941;95893.44;;;;
2022/06/18 05:57:58;;;;;;;3.299999;3;;;;;;;18.94;59.64941;95893.44;;;;
2022/06/18 05:58:59;;;;;;;3.299999;3;;;;;;;18.94;59.64941;95893.44;;;;
2022/06/18 05:59:59;;;;;;;3.299999;3;;;;;;;18.94;59.64941;95893.44;;;;
2022/06/18 06:01:04;;;;;;;3.299999;3;;;;;;;18.94;59.64941;95893.44;;;;
2022/06/18 06:02:05;;;;;;;3.299999;3;;;;;;;18.94;59.64941;95893.44;;;;
2022/06/18 06:03:06;;;;;;;4.25;3.25;;;;;;;19.41;59.09473;95898.19;;;;
2022/06/18 06:04:07;;;;;;;4.25;3.25;;;;;;;19.41;59.09473;95898.19;;;;
2022/06/18 06:05:07;;;;;;;4.25;3.25;;;;;;;19.41;59.09473;95898.19;;;;
2022/06/18 06:06:08;;;;;;;4.25;3.25;;;;;;;19.41;59.09473;95898.19;;;;
2022/06/18 06:07:09;;;;;;;4.25;3.25;;;;;;;19.41;59.09473;95898.19;;;;
2022/06/18 06:08:12;;;;;;;4.25;3.25;;;;;;;19.41;59.09473;95898.19;;;;